Thunder radar more information blitzortung!


avis per Snow/Ice more information rain snow radar


Visita la nostra xarxa de llocs de meteo:

Template documentation
and downloads

And another site



Snow/Ice From: 26-02-2018 12:00 Until: 27-02-2018 05:59 warning for: Snow/Ice Level: Yellow info button

Pagina Historial Weather Underground text

Diari Resum January 9, 2018 Unitats:  Imperial    Mètric   Tant
« Previous Dia
SegĂźent Dia »
Diari Setmana Mensual Anual Personalitzada
  Maxima: Minima: Media:
Temperatura: TemperatureC °F 4.8 °F 10.1 °F
Punt de rosada: DewpointC °F -2.8 °F 1.2 °F
Humitat: Humidity % 48 % 54 %
Wind Speed: WindSpeedKMH mph 0.0 mph 6.7 mph
RĂ fegues de vent: WindSpeedGustKMH mph - -
Vent:- - SW
Pression baro: PressurehPa in 1013.8 in -
Precipitacions: 0.0 in    
Historical Graphs
 
 
Dades de taula per January 9, 2018
Temps Temperatura Punt de rosada Pression baro Vent Wind Speed RĂ fegues de vent Humitat Rainfall Rate (Hourly)
TemperatureC °F DewpointC °F PressurehPa in Calm     Humidity % HourlyPrecipMM in
04:48 6.7 °F 0.8 °F 1017.8 in ENE 3.7 mph 3.7 mph 66 % 0.0 in
04:49 6.7 °F 0.8 °F 1017.8 in ENE 3.7 mph 3.7 mph 66 % 0.0 in
04:50 6.8 °F 0.9 °F 1017.8 in ENE 1.9 mph   66 % 0.0 in
04:51 6.8 °F 0.9 °F 1017.8 in NNW 1.9 mph   66 % 0.0 in
04:52 6.9 °F 1.2 °F 1017.8 in NW 3.7 mph 3.7 mph 67 % 0.0 in
04:53 7.0 °F 1.3 °F 1017.8 in NNW 3.7 mph 3.7 mph 67 % 0.0 in
04:54 7.1 °F 1.4 °F 1017.8 in NNW 1.9 mph 1.9 mph 67 % 0.0 in
04:55 7.2 °F 1.5 °F 1017.8 in West 1.9 mph   67 % 0.0 in
04:56 7.2 °F 1.5 °F 1017.8 in West 3.7 mph 3.7 mph 67 % 0.0 in
04:57 7.2 °F 1.5 °F 1017.8 in West 3.7 mph 3.7 mph 67 % 0.0 in
04:58 7.3 °F 1.6 °F 1017.8 in SW 3.7 mph 3.7 mph 67 % 0.0 in
04:59 7.4 °F 1.7 °F 1017.8 in SW 3.7 mph 3.7 mph 67 % 0.0 in
05:00 7.4 °F 1.7 °F 1017.8 in SW 3.7 mph 3.7 mph 67 % 0.0 in
05:01 7.6 °F 1.7 °F 1017.8 in Calm     66 % 0.0 in
05:02 7.7 °F 1.7 °F 1017.8 in SW 3.7 mph 3.7 mph 66 % 0.0 in
05:03 7.8 °F 1.8 °F 1017.8 in SW 3.7 mph 3.7 mph 66 % 0.0 in
05:04 7.8 °F 1.8 °F 1017.8 in WNW 3.7 mph   66 % 0.0 in
05:05 7.8 °F 1.8 °F 1017.8 in NNW 2.6 mph 2.6 mph 66 % 0.0 in
05:06 7.8 °F 1.6 °F 1017.8 in North 1.9 mph 2.3 mph 65 % 0.0 in
05:07 7.8 °F 1.6 °F 1017.8 in North 1.9 mph 2.3 mph 65 % 0.0 in
05:08 7.8 °F 1.6 °F 1017.8 in NNE 2.6 mph 2.6 mph 65 % 0.0 in
05:09 7.8 °F 1.6 °F 1017.8 in NNE 3.7 mph 3.7 mph 65 % 0.0 in
05:10 7.9 °F 1.7 °F 1017.8 in NNE 1.9 mph 1.9 mph 65 % 0.0 in
05:11 8.0 °F 1.8 °F 1017.8 in NNE 1.9 mph   65 % 0.0 in
05:12 8.1 °F 1.9 °F 1017.8 in East 3.7 mph 3.7 mph 65 % 0.0 in
05:13 8.2 °F 2.0 °F 1017.8 in East 3.7 mph   65 % 0.0 in
05:14 8.2 °F 2.0 °F 1017.8 in Calm     65 % 0.0 in
05:16 8.4 °F 2.2 °F 1017.8 in ESE 1.9 mph   65 % 0.0 in
05:17 8.5 °F 2.3 °F 1017.8 in ESE 1.9 mph 1.9 mph 65 % 0.0 in
05:18 8.6 °F 2.4 °F 1017.8 in NE 2.6 mph 2.6 mph 65 % 0.0 in
05:20 8.4 °F 2.0 °F 1017.8 in ENE 4.2 mph 4.2 mph 64 % 0.0 in
05:21 8.2 °F 1.8 °F 1017.8 in NE 3.7 mph 4.2 mph 64 % 0.0 in
05:22 8.1 °F 1.7 °F 1017.8 in NE 3.7 mph 3.7 mph 64 % 0.0 in
05:23 8.1 °F 1.7 °F 1017.8 in ENE 3.7 mph 3.7 mph 64 % 0.0 in
05:24 8.1 °F 1.7 °F 1017.8 in NE 3.7 mph 3.7 mph 64 % 0.0 in
05:25 8.1 °F 1.7 °F 1017.8 in ENE 1.6 mph 4.8 mph 64 % 0.0 in
05:26 7.9 °F 1.3 °F 1017.8 in NNE 7.4 mph 7.4 mph 63 % 0.0 in
05:27 7.9 °F 1.3 °F 1017.8 in ENE 5.6 mph 5.6 mph 63 % 0.0 in
05:28 7.9 °F 1.3 °F 1017.8 in ENE 3.7 mph 3.7 mph 63 % 0.0 in
05:29 7.9 °F 1.5 °F 1017.8 in NE 5.3 mph 5.3 mph 64 % 0.0 in
05:30 7.9 °F 1.3 °F 1017.8 in NNE 5.6 mph 5.6 mph 63 % 0.0 in
05:31 7.9 °F 1.5 °F 1017.8 in NE 3.9 mph 3.9 mph 64 % 0.0 in
05:32 8.0 °F 1.6 °F 1017.8 in NNE 4.2 mph 4.2 mph 64 % 0.0 in
05:33 8.0 °F 1.6 °F 1017.8 in NE 4.7 mph 4.7 mph 64 % 0.0 in
05:36 8.0 °F 1.4 °F 1017.8 in NE 5.6 mph 5.6 mph 63 % 0.0 in
05:37 8.1 °F 1.5 °F 1017.8 in NE 3.7 mph 3.7 mph 63 % 0.0 in
05:38 8.1 °F 1.5 °F 1017.8 in NE 3.7 mph 3.7 mph 63 % 0.0 in
05:39 8.3 °F 1.9 °F 1017.8 in NE 1.9 mph   64 % 0.0 in
05:41 8.3 °F 1.9 °F 1017.8 in NE 5.6 mph 5.6 mph 64 % 0.0 in
05:44 8.4 °F 2.0 °F 1017.8 in NNW 3.7 mph 3.7 mph 64 % 0.0 in
05:45 8.4 °F 2.0 °F 1017.8 in NE 3.7 mph 3.7 mph 64 % 0.0 in
05:46 8.4 °F 2.0 °F 1017.8 in NE 3.7 mph 3.7 mph 64 % 0.0 in
05:50 8.4 °F 2.0 °F 1017.8 in NNE 5.6 mph 5.6 mph 64 % 0.0 in
05:53 8.7 °F 2.3 °F 1017.8 in NE 2.6 mph 3.2 mph 64 % 0.0 in
05:54 8.7 °F 2.3 °F 1017.8 in NE 5.6 mph 5.6 mph 64 % 0.0 in
05:55 8.8 °F 2.3 °F 1017.8 in NE 3.7 mph 3.7 mph 64 % 0.0 in
05:56 8.7 °F 2.1 °F 1017.8 in ENE 3.9 mph 3.9 mph 63 % 0.0 in
05:58 8.7 °F 2.1 °F 1017.8 in NNE 3.7 mph 3.7 mph 63 % 0.0 in
05:59 8.7 °F 2.1 °F 1017.8 in ENE 3.2 mph 3.2 mph 63 % 0.0 in
06:00 8.7 °F 2.1 °F 1017.8 in East 4.2 mph 4.2 mph 63 % 0.0 in
06:01 8.7 °F 2.1 °F 1017.8 in NNE 5.6 mph 5.6 mph 63 % 0.0 in
06:02 8.7 °F 1.8 °F 1017.8 in NE 5.6 mph 5.6 mph 62 % 0.0 in
06:03 8.7 °F 1.8 °F 1017.8 in NE 5.6 mph 5.6 mph 62 % 0.0 in
06:05 8.9 °F 2.2 °F 1017.8 in ENE 5.0 mph 5.0 mph 63 % 0.0 in
06:06 8.9 °F 2.2 °F 1017.8 in NNE 5.6 mph 5.6 mph 63 % 0.0 in
06:07 8.9 °F 2.2 °F 1017.8 in NNE 5.6 mph 5.6 mph 63 % 0.0 in
06:08 8.7 °F 1.8 °F 1017.8 in NNE 5.6 mph 5.6 mph 62 % 0.0 in
06:10 8.8 °F 1.9 °F 1017.8 in NE 5.6 mph   62 % 0.0 in
06:13 9.1 °F 2.2 °F 1017.8 in ESE 5.6 mph 5.6 mph 62 % 0.0 in
06:14 9.1 °F 2.2 °F 1017.8 in East 5.6 mph 5.6 mph 62 % 0.0 in
06:15 9.1 °F 2.2 °F 1017.8 in NE 3.2 mph 6.4 mph 62 % 0.0 in
06:16 9.1 °F 2.2 °F 1017.8 in East 5.6 mph 5.6 mph 62 % 0.0 in
06:17 9.2 °F 2.3 °F 1017.8 in East 2.3 mph 2.3 mph 62 % 0.0 in
06:18 9.2 °F 2.1 °F 1017.8 in NNE 5.6 mph 5.6 mph 61 % 0.0 in
06:20 9.1 °F 2.2 °F 1017.8 in NE 6.1 mph 6.1 mph 62 % 0.0 in
06:21 9.1 °F 1.9 °F 1017.8 in ESE 5.6 mph 5.6 mph 61 % 0.0 in
06:22 9.1 °F 1.9 °F 1017.8 in ENE 3.7 mph 3.7 mph 61 % 0.0 in
06:23 9.2 °F 2.1 °F 1017.8 in ENE 3.7 mph 3.7 mph 61 % 0.0 in
06:25 9.4 °F 2.5 °F 1017.8 in WSW 5.0 mph 5.0 mph 62 % 0.0 in
06:26 9.6 °F 2.7 °F 1017.8 in WNW 5.6 mph 5.6 mph 62 % 0.0 in
06:27 9.6 °F 2.9 °F 1017.8 in NNW 3.7 mph 3.7 mph 63 % 0.0 in
06:28 9.7 °F 3.0 °F 1017.8 in West 4.2 mph 4.2 mph 63 % 0.0 in
06:29 9.9 °F 2.9 °F 1017.8 in ENE 3.7 mph 3.7 mph 62 % 0.0 in
06:30 9.9 °F 2.9 °F 1017.8 in NNW 4.2 mph 4.2 mph 62 % 0.0 in
06:33 10.3 °F 3.1 °F 1017.8 in WSW 8.7 mph 8.7 mph 61 % 0.0 in
06:35 10.3 °F 3.1 °F 1017.8 in South 9.3 mph 9.3 mph 61 % 0.0 in
06:36 10.4 °F 3.2 °F 1017.8 in South 5.6 mph 5.6 mph 61 % 0.0 in
06:37 10.4 °F 3.2 °F 1017.8 in WNW 4.7 mph 4.7 mph 61 % 0.0 in
06:38 10.5 °F 3.3 °F 1017.8 in WSW 6.4 mph 6.4 mph 61 % 0.0 in
06:40 10.7 °F 3.2 °F 1017.8 in WNW 2.3 mph 2.3 mph 60 % 0.0 in
06:41 10.7 °F 3.2 °F 1017.8 in NW 3.7 mph 3.7 mph 60 % 0.0 in
06:43 10.6 °F 3.4 °F 1017.8 in WNW 7.4 mph 7.4 mph 61 % 0.0 in
06:44 10.6 °F 3.2 °F 1017.8 in WNW 7.4 mph 7.4 mph 60 % 0.0 in
06:45 10.8 °F 3.3 °F 1017.8 in SSW 3.7 mph 3.7 mph 60 % 0.0 in
06:46 10.8 °F 3.3 °F 1017.8 in WNW 3.7 mph 3.7 mph 60 % 0.0 in
06:47 10.9 °F 3.4 °F 1017.8 in WSW 8.7 mph 8.7 mph 60 % 0.0 in
06:48 10.9 °F 3.4 °F 1017.8 in WNW 9.3 mph 9.3 mph 60 % 0.0 in
06:50 10.9 °F 3.4 °F 1016.8 in NNW 9.5 mph 9.5 mph 60 % 0.0 in
06:52 10.9 °F 3.2 °F 1016.8 in West 13.0 mph 13.0 mph 59 % 0.0 in
06:53 10.8 °F 2.8 °F 1016.8 in West 13.0 mph 13.0 mph 58 % 0.0 in
06:54 10.8 °F 2.8 °F 1016.8 in West 7.4 mph 7.4 mph 58 % 0.0 in
06:55 10.9 °F 2.9 °F 1016.8 in WNW 13.0 mph 13.0 mph 58 % 0.0 in
06:56 10.9 °F 2.9 °F 1016.8 in West 13.0 mph 13.0 mph 58 % 0.0 in
06:57 10.9 °F 2.7 °F 1016.8 in WSW 11.1 mph 11.1 mph 57 % 0.0 in
07:00 11.0 °F 2.8 °F 1016.8 in West 3.2 mph 12.9 mph 57 % 0.0 in
07:01 10.9 °F 2.7 °F 1016.8 in NNW 7.4 mph 7.4 mph 57 % 0.0 in
07:02 11.0 °F 2.8 °F 1016.8 in NW 7.4 mph 7.4 mph 57 % 0.0 in
07:05 11.1 °F 2.9 °F 1015.8 in WNW 11.4 mph 11.4 mph 57 % 0.0 in
07:06 11.1 °F 2.7 °F 1015.8 in West 11.1 mph 11.1 mph 56 % 0.0 in
07:07 11.1 °F 2.7 °F 1015.8 in West 11.1 mph 11.1 mph 56 % 0.0 in
07:08 11.1 °F 2.7 °F 1015.8 in WNW 7.4 mph 7.4 mph 56 % 0.0 in
07:10 11.3 °F 2.6 °F 1015.8 in WSW 5.6 mph 5.6 mph 55 % 0.0 in
07:11 11.4 °F 2.7 °F 1015.8 in South 7.4 mph 7.4 mph 55 % 0.0 in
07:12 11.4 °F 2.9 °F 1015.8 in SW 7.9 mph 7.9 mph 56 % 0.0 in
07:13 11.4 °F 2.9 °F 1015.8 in WNW 9.3 mph 9.3 mph 56 % 0.0 in
07:14 11.4 °F 2.9 °F 1015.8 in West 9.3 mph 9.3 mph 56 % 0.0 in
07:16 11.4 °F 2.7 °F 1015.8 in North 5.6 mph 5.6 mph 55 % 0.0 in
07:17 11.4 °F 2.7 °F 1015.8 in WSW 3.7 mph 3.7 mph 55 % 0.0 in
07:18 11.7 °F 2.9 °F 1015.8 in NNW 2.3 mph 2.3 mph 55 % 0.0 in
07:19 11.7 °F 2.9 °F 1015.8 in West 2.3 mph 2.3 mph 55 % 0.0 in
07:20 11.7 °F 2.9 °F 1015.8 in WSW 3.9 mph 3.9 mph 55 % 0.0 in
07:21 11.8 °F 3.1 °F 1015.8 in WSW 5.3 mph 5.3 mph 55 % 0.0 in
07:22 11.8 °F 3.1 °F 1015.8 in WSW 5.8 mph 5.8 mph 55 % 0.0 in
07:24 11.8 °F 2.8 °F 1015.8 in SSW 9.3 mph 9.3 mph 54 % 0.0 in
07:25 11.8 °F 2.8 °F 1015.8 in WSW 7.4 mph 7.4 mph 54 % 0.0 in
07:27 11.9 °F 2.9 °F 1015.8 in WSW 5.6 mph 5.6 mph 54 % 0.0 in
07:28 11.9 °F 2.9 °F 1015.8 in NW 7.4 mph 7.4 mph 54 % 0.0 in
07:29 11.9 °F 2.9 °F 1015.8 in NE 3.7 mph 3.7 mph 54 % 0.0 in
07:30 12.0 °F 2.9 °F 1015.8 in NW 9.3 mph 9.3 mph 54 % 0.0 in
07:31 12.0 °F 2.9 °F 1015.8 in WSW 6.4 mph 6.4 mph 54 % 0.0 in
07:32 12.0 °F 2.9 °F 1015.8 in WNW 7.4 mph 7.4 mph 54 % 0.0 in
07:33 12.0 °F 2.9 °F 1015.8 in West 7.4 mph 7.4 mph 54 % 0.0 in
07:34 12.0 °F 2.9 °F 1015.8 in SW 6.1 mph 6.1 mph 54 % 0.0 in
07:38 12.0 °F 2.9 °F 1015.8 in WNW 11.1 mph 11.1 mph 54 % 0.0 in
07:40 11.8 °F 2.5 °F 1015.8 in WSW 11.1 mph 11.1 mph 53 % 0.0 in
07:42 11.8 °F 2.5 °F 1015.8 in West 9.7 mph 9.7 mph 53 % 0.0 in
07:43 11.8 °F 2.5 °F 1015.8 in WNW 9.3 mph 9.3 mph 53 % 0.0 in
07:44 11.8 °F 2.5 °F 1015.8 in WNW 5.6 mph 5.6 mph 53 % 0.0 in
07:46 11.7 °F 2.4 °F 1015.8 in West 10.3 mph 10.3 mph 53 % 0.0 in
07:48 11.7 °F 2.2 °F 1015.8 in NNE 7.4 mph 7.4 mph 52 % 0.0 in
07:49 11.7 °F 2.2 °F 1015.8 in West 7.4 mph 7.4 mph 52 % 0.0 in
07:50 11.7 °F 2.2 °F 1015.8 in WSW 7.4 mph 7.4 mph 52 % 0.0 in
07:51 11.7 °F 2.2 °F 1015.8 in SW 5.6 mph 5.6 mph 52 % 0.0 in
07:52 11.7 °F 2.2 °F 1015.8 in West 5.6 mph 5.6 mph 52 % 0.0 in
07:53 11.8 °F 2.3 °F 1015.8 in NNW 3.9 mph 3.9 mph 52 % 0.0 in
07:55 11.7 °F 2.2 °F 1015.8 in WNW 7.4 mph 7.4 mph 52 % 0.0 in
07:56 11.7 °F 2.2 °F 1015.8 in WSW 5.6 mph 5.6 mph 52 % 0.0 in
07:57 11.8 °F 2.3 °F 1015.8 in WSW 5.6 mph 5.6 mph 52 % 0.0 in
07:59 11.8 °F 2.3 °F 1015.8 in WSW 7.4 mph 7.4 mph 52 % 0.0 in
08:00 11.8 °F 2.3 °F 1015.8 in West 3.2 mph 9.7 mph 52 % 0.0 in
08:02 12.0 °F 2.4 °F 1015.8 in West 9.3 mph 9.3 mph 52 % 0.0 in
08:03 12.0 °F 2.4 °F 1015.8 in West 9.3 mph 9.3 mph 52 % 0.0 in
08:06 12.1 °F 2.6 °F 1015.8 in West 4.2 mph 4.2 mph 52 % 0.0 in
08:07 12.1 °F 2.6 °F 1015.8 in WSW 7.9 mph 7.9 mph 52 % 0.0 in
08:08 12.1 °F 2.6 °F 1015.8 in SSW 6.4 mph 6.4 mph 52 % 0.0 in
08:10 12.1 °F 2.6 °F 1015.8 in WSW 9.3 mph 9.3 mph 52 % 0.0 in
08:14 12.2 °F 2.6 °F 1015.8 in West 7.4 mph 7.4 mph 52 % 0.0 in
08:15 12.2 °F 2.6 °F 1015.8 in NNW 7.4 mph 7.4 mph 52 % 0.0 in
08:16 12.1 °F 2.6 °F 1015.8 in WSW 8.7 mph 8.7 mph 52 % 0.0 in
08:17 12.1 °F 2.6 °F 1015.8 in West 9.3 mph 9.3 mph 52 % 0.0 in
08:18 12.1 °F 2.6 °F 1015.8 in SW 7.4 mph 7.4 mph 52 % 0.0 in
08:19 12.2 °F 2.3 °F 1015.8 in SSW 7.4 mph 7.4 mph 51 % 0.0 in
08:21 12.2 °F 2.3 °F 1015.8 in NW 7.4 mph 7.4 mph 51 % 0.0 in
08:25 12.2 °F 2.3 °F 1015.8 in West 5.6 mph 5.6 mph 51 % 0.0 in
08:27 12.2 °F 2.3 °F 1015.8 in South 1.9 mph 1.9 mph 51 % 0.0 in
08:28 12.2 °F 2.3 °F 1015.8 in SSE 6.1 mph 6.1 mph 51 % 0.0 in
08:30 12.2 °F 2.3 °F 1015.8 in WSW 5.8 mph 5.8 mph 51 % 0.0 in
08:31 12.2 °F 2.3 °F 1015.8 in WSW 5.6 mph 5.6 mph 51 % 0.0 in
08:33 12.1 °F 2.3 °F 1015.8 in West 6.9 mph 6.9 mph 51 % 0.0 in
08:34 12.1 °F 2.3 °F 1015.8 in East 9.3 mph 9.3 mph 51 % 0.0 in
08:35 12.1 °F 2.3 °F 1015.8 in WSW 9.3 mph 9.3 mph 51 % 0.0 in
08:37 12.1 °F 2.3 °F 1015.8 in West 5.0 mph 5.0 mph 51 % 0.0 in
08:39 12.0 °F 2.2 °F 1015.8 in West 7.4 mph 7.4 mph 51 % 0.0 in
08:40 11.9 °F 2.1 °F 1015.8 in WSW 7.4 mph 7.4 mph 51 % 0.0 in
08:41 11.9 °F 2.1 °F 1015.8 in WSW 7.4 mph 7.4 mph 51 % 0.0 in
08:42 11.9 °F 2.1 °F 1015.8 in WSW 7.4 mph 7.4 mph 51 % 0.0 in
08:44 11.9 °F 2.1 °F 1015.8 in SSW 5.6 mph 5.6 mph 51 % 0.0 in
08:45 11.9 °F 2.1 °F 1015.8 in SSW 5.6 mph 5.6 mph 51 % 0.0 in
08:46 11.9 °F 2.1 °F 1015.8 in West 5.0 mph 5.0 mph 51 % 0.0 in
08:47 11.8 °F 2.0 °F 1015.8 in WSW 5.6 mph 5.6 mph 51 % 0.0 in
08:48 11.8 °F 2.0 °F 1015.8 in WNW 3.7 mph 3.7 mph 51 % 0.0 in
08:49 11.8 °F 2.0 °F 1015.8 in NW 4.7 mph 4.7 mph 51 % 0.0 in
08:50 11.8 °F 2.0 °F 1015.8 in WSW 5.6 mph 5.6 mph 51 % 0.0 in
08:51 11.8 °F 2.0 °F 1015.8 in SW 4.7 mph 4.7 mph 51 % 0.0 in
08:52 11.8 °F 2.0 °F 1015.8 in West 5.6 mph 5.6 mph 51 % 0.0 in
08:53 11.8 °F 2.0 °F 1015.8 in WNW 5.6 mph 5.6 mph 51 % 0.0 in
08:54 11.8 °F 2.0 °F 1015.8 in WSW 9.0 mph 9.0 mph 51 % 0.0 in
08:55 11.8 °F 2.0 °F 1015.8 in NNW 6.4 mph 6.4 mph 51 % 0.0 in
08:56 11.8 °F 2.0 °F 1015.8 in NNW 7.4 mph 7.4 mph 51 % 0.0 in
08:58 11.9 °F 2.1 °F 1015.8 in WNW 5.0 mph 5.0 mph 51 % 0.0 in
08:59 11.9 °F 2.1 °F 1015.8 in North 5.6 mph 5.6 mph 51 % 0.0 in
09:00 11.9 °F 2.1 °F 1015.8 in WNW 5.6 mph 5.6 mph 51 % 0.0 in
09:03 11.9 °F 2.1 °F 1015.8 in West 9.3 mph 9.3 mph 51 % 0.0 in
09:04 12.0 °F 2.2 °F 1015.8 in WSW 5.6 mph 5.6 mph 51 % 0.0 in
09:05 12.0 °F 2.2 °F 1015.8 in West 3.2 mph 9.7 mph 51 % 0.0 in
09:06 12.1 °F 2.3 °F 1015.8 in SW 11.1 mph 11.1 mph 51 % 0.0 in
09:07 12.1 °F 2.3 °F 1015.8 in SW 11.1 mph 11.1 mph 51 % 0.0 in
09:08 12.0 °F 1.9 °F 1015.8 in WSW 11.1 mph 11.1 mph 50 % 0.0 in
09:09 12.0 °F 1.9 °F 1015.8 in WNW 11.1 mph 11.1 mph 50 % 0.0 in
09:10 12.0 °F 1.9 °F 1015.8 in West 9.3 mph 9.3 mph 50 % 0.0 in
09:11 12.0 °F 1.9 °F 1015.8 in NW 7.4 mph 7.4 mph 50 % 0.0 in
09:12 11.9 °F 1.8 °F 1015.8 in West 5.6 mph 5.6 mph 50 % 0.0 in
09:13 12.0 °F 1.9 °F 1015.8 in WNW 5.6 mph 5.6 mph 50 % 0.0 in
09:14 11.9 °F 1.8 °F 1015.8 in West 5.6 mph 5.6 mph 50 % 0.0 in
09:16 12.0 °F 1.9 °F 1015.8 in WSW 3.7 mph 3.7 mph 50 % 0.0 in
09:17 12.0 °F 2.2 °F 1015.8 in NNW 5.8 mph 5.8 mph 51 % 0.0 in
09:18 12.0 °F 2.2 °F 1015.8 in WNW 5.6 mph 5.6 mph 51 % 0.0 in
09:20 11.9 °F 1.8 °F 1015.8 in NW 3.9 mph 3.9 mph 50 % 0.0 in
09:21 11.9 °F 1.8 °F 1015.8 in West 5.8 mph 5.8 mph 50 % 0.0 in
09:23 11.8 °F 1.7 °F 1015.8 in WSW 5.6 mph 5.6 mph 50 % 0.0 in
09:25 11.8 °F 1.7 °F 1015.8 in WNW 9.3 mph 9.3 mph 50 % 0.0 in
09:26 11.8 °F 1.7 °F 1015.8 in West 9.3 mph 9.3 mph 50 % 0.0 in
09:27 11.9 °F 1.8 °F 1015.8 in West 5.6 mph 5.6 mph 50 % 0.0 in
09:28 11.9 °F 1.8 °F 1015.8 in West 7.4 mph 7.4 mph 50 % 0.0 in
09:29 11.8 °F 1.7 °F 1015.8 in WSW 5.6 mph 5.6 mph 50 % 0.0 in
09:30 11.8 °F 1.7 °F 1015.8 in WNW 5.8 mph 5.8 mph 50 % 0.0 in
09:33 11.7 °F 1.6 °F 1015.8 in ENE 5.6 mph 5.6 mph 50 % 0.0 in
09:36 11.6 °F 1.5 °F 1015.8 in West 11.4 mph 11.4 mph 50 % 0.0 in
09:38 11.6 °F 1.5 °F 1015.8 in NW 5.6 mph 5.6 mph 50 % 0.0 in
09:39 11.6 °F 1.5 °F 1015.8 in West 9.0 mph 9.0 mph 50 % 0.0 in
09:40 11.6 °F 1.5 °F 1015.8 in WNW 9.3 mph 9.3 mph 50 % 0.0 in
09:42 11.5 °F 1.4 °F 1015.8 in SW 7.4 mph 7.4 mph 50 % 0.0 in
09:43 11.5 °F 1.4 °F 1015.8 in West 5.6 mph 6.1 mph 50 % 0.0 in
09:45 11.5 °F 1.4 °F 1015.8 in WNW 7.4 mph 7.4 mph 50 % 0.0 in
09:47 11.5 °F 1.4 °F 1015.8 in WNW 3.7 mph 3.9 mph 50 % 0.0 in
09:48 11.5 °F 1.4 °F 1015.8 in West 3.9 mph 3.9 mph 50 % 0.0 in
09:49 11.5 °F 1.4 °F 1015.8 in WNW 5.6 mph 5.6 mph 50 % 0.0 in
09:50 11.5 °F 1.4 °F 1014.8 in WNW 5.6 mph 5.6 mph 50 % 0.0 in
09:51 11.4 °F 1.3 °F 1014.8 in NW 6.9 mph 6.9 mph 50 % 0.0 in
09:52 11.4 °F 1.3 °F 1014.8 in NNE 9.3 mph 9.3 mph 50 % 0.0 in
09:53 11.4 °F 1.3 °F 1014.8 in West 7.4 mph 7.4 mph 50 % 0.0 in
09:54 11.4 °F 1.3 °F 1014.8 in West 9.5 mph 9.5 mph 50 % 0.0 in
09:55 11.4 °F 1.3 °F 1014.8 in West 4.8 mph 9.7 mph 50 % 0.0 in
09:56 11.4 °F 1.3 °F 1014.8 in SW 9.3 mph 9.3 mph 50 % 0.0 in
09:58 11.3 °F 0.9 °F 1014.8 in WNW 9.3 mph 9.3 mph 49 % 0.0 in
10:00 11.3 °F 0.9 °F 1014.8 in SW 5.6 mph 5.6 mph 49 % 0.0 in
10:01 11.3 °F 0.9 °F 1014.8 in NW 6.1 mph 6.1 mph 49 % 0.0 in
10:02 11.3 °F 0.9 °F 1014.8 in NNW 10.3 mph 10.3 mph 49 % 0.0 in
10:03 11.2 °F 0.9 °F 1014.8 in West 11.1 mph 11.1 mph 49 % 0.0 in
10:04 11.2 °F 0.9 °F 1014.8 in WSW 9.3 mph 9.3 mph 49 % 0.0 in
10:05 11.2 °F 0.9 °F 1015.8 in WNW 7.4 mph 7.4 mph 49 % 0.0 in
10:06 11.2 °F 0.9 °F 1015.8 in NW 5.6 mph 5.6 mph 49 % 0.0 in
10:07 11.2 °F 0.9 °F 1015.8 in WSW 5.6 mph 5.6 mph 49 % 0.0 in
10:08 11.2 °F 0.9 °F 1015.8 in WNW 9.3 mph 9.3 mph 49 % 0.0 in
10:12 11.3 °F 0.7 °F 1015.8 in West 11.1 mph 11.1 mph 48 % 0.0 in
10:13 11.3 °F 0.7 °F 1015.8 in ENE 11.1 mph 11.1 mph 48 % 0.0 in
10:15 11.3 °F 0.7 °F 1015.8 in NW 9.3 mph 9.3 mph 48 % 0.0 in
10:16 11.3 °F 0.7 °F 1015.8 in NW 9.3 mph 9.3 mph 48 % 0.0 in
10:17 11.3 °F 0.7 °F 1015.8 in WNW 7.4 mph 7.4 mph 48 % 0.0 in
10:18 11.3 °F 0.7 °F 1015.8 in West 11.1 mph 11.1 mph 48 % 0.0 in
10:19 11.3 °F 0.7 °F 1015.8 in West 11.1 mph 11.1 mph 48 % 0.0 in
10:20 11.2 °F 0.6 °F 1015.8 in WNW 9.3 mph 9.3 mph 48 % 0.0 in
10:21 11.2 °F 0.6 °F 1015.8 in West 9.3 mph 9.3 mph 48 % 0.0 in
10:22 11.2 °F 0.6 °F 1015.8 in WNW 8.7 mph 8.7 mph 48 % 0.0 in
10:23 11.2 °F 0.6 °F 1015.8 in WNW 9.3 mph 9.3 mph 48 % 0.0 in
10:25 11.1 °F 0.5 °F 1015.8 in WSW 5.6 mph 5.6 mph 48 % 0.0 in
10:26 11.0 °F 0.4 °F 1015.8 in West 7.4 mph 7.4 mph 48 % 0.0 in
10:27 11.0 °F 0.4 °F 1015.8 in West 7.4 mph 7.4 mph 48 % 0.0 in
10:28 11.0 °F 0.4 °F 1015.8 in West 11.1 mph 11.1 mph 48 % 0.0 in
10:29 11.0 °F 0.4 °F 1015.8 in WNW 11.1 mph 11.1 mph 48 % 0.0 in
10:30 11.0 °F 0.4 °F 1015.8 in WNW 5.6 mph 5.6 mph 48 % 0.0 in
10:31 10.9 °F 0.3 °F 1015.8 in WSW 9.3 mph 9.3 mph 48 % 0.0 in
10:34 10.8 °F 0.2 °F 1015.8 in WSW 9.3 mph 9.3 mph 48 % 0.0 in
10:35 10.8 °F 0.2 °F 1015.8 in WSW 9.5 mph 9.5 mph 48 % 0.0 in
10:36 10.7 °F 0.1 °F 1015.8 in West 14.8 mph 14.8 mph 48 % 0.0 in
10:37 10.7 °F 0.1 °F 1015.8 in WSW 9.3 mph 9.3 mph 48 % 0.0 in
10:38 10.7 °F 0.1 °F 1015.8 in WSW 9.3 mph 9.3 mph 48 % 0.0 in
10:39 10.6 °F 0.1 °F 1015.8 in WSW 5.6 mph 5.6 mph 48 % 0.0 in
10:40 10.6 °F 0.1 °F 1015.8 in WNW 7.4 mph 7.4 mph 48 % 0.0 in
10:41 10.6 °F 0.1 °F 1015.8 in WNW 7.4 mph 7.4 mph 48 % 0.0 in
10:43 10.5 °F -0.1 °F 1015.8 in West 7.4 mph 7.4 mph 48 % 0.0 in
10:44 10.5 °F -0.1 °F 1015.8 in NW 5.6 mph 5.6 mph 48 % 0.0 in
10:45 10.4 °F -0.2 °F 1015.8 in West 5.6 mph 5.6 mph 48 % 0.0 in
10:46 10.4 °F -0.2 °F 1015.8 in SSW 5.6 mph 5.6 mph 48 % 0.0 in
10:49 10.3 °F -0.2 °F 1015.8 in West 7.4 mph 7.4 mph 48 % 0.0 in
10:50 10.3 °F -0.2 °F 1015.8 in WNW 7.4 mph 7.4 mph 48 % 0.0 in
10:51 10.3 °F -0.2 °F 1015.8 in West 5.6 mph 5.6 mph 48 % 0.0 in
10:54 10.2 °F -0.3 °F 1015.8 in WNW 6.4 mph 6.4 mph 48 % 0.0 in
10:55 10.2 °F -0.3 °F 1015.8 in WSW 7.4 mph 7.4 mph 48 % 0.0 in
10:56 10.2 °F -0.3 °F 1015.8 in South 7.4 mph 7.4 mph 48 % 0.0 in
10:57 10.1 °F -0.4 °F 1015.8 in West 7.4 mph 7.4 mph 48 % 0.0 in
10:58 10.1 °F -0.4 °F 1015.8 in WSW 9.3 mph 9.3 mph 48 % 0.0 in
10:59 10.1 °F -0.4 °F 1015.8 in WSW 9.3 mph 9.3 mph 48 % 0.0 in
11:00 10.0 °F -0.5 °F 1015.8 in West 7.4 mph 7.4 mph 48 % 0.0 in
11:03 10.0 °F -0.5 °F 1015.8 in WSW 11.1 mph 11.1 mph 48 % 0.0 in
11:05 9.9 °F -0.6 °F 1015.8 in West 9.3 mph 9.3 mph 48 % 0.0 in
11:06 9.9 °F -0.6 °F 1015.8 in West 7.4 mph 7.4 mph 48 % 0.0 in
11:07 9.9 °F -0.6 °F 1015.8 in West 9.3 mph 9.3 mph 48 % 0.0 in
11:08 9.9 °F -0.6 °F 1015.8 in WSW 10.3 mph 10.3 mph 48 % 0.0 in
11:09 9.9 °F -0.6 °F 1015.8 in WSW 10.3 mph 10.3 mph 48 % 0.0 in
11:10 9.9 °F -0.6 °F 1015.8 in West 8.0 mph 11.3 mph 48 % 0.0 in
11:11 9.8 °F -0.7 °F 1015.8 in WSW 7.4 mph 7.4 mph 48 % 0.0 in
11:12 9.8 °F -0.7 °F 1015.8 in WSW 10.3 mph 10.3 mph 48 % 0.0 in
11:13 9.8 °F -0.7 °F 1015.8 in WSW 11.1 mph 11.1 mph 48 % 0.0 in
11:15 9.8 °F -0.7 °F 1015.8 in WSW 9.3 mph 9.3 mph 48 % 0.0 in
11:17 9.7 °F -0.8 °F 1015.8 in SW 9.7 mph 9.7 mph 48 % 0.0 in
11:18 9.7 °F -0.8 °F 1015.8 in WSW 9.3 mph 9.3 mph 48 % 0.0 in
11:20 9.7 °F -0.8 °F 1015.8 in WSW 9.3 mph 9.3 mph 48 % 0.0 in
11:23 9.6 °F -0.9 °F 1015.8 in NW 7.4 mph 7.4 mph 48 % 0.0 in
11:25 9.6 °F -0.9 °F 1015.8 in WNW 7.4 mph 7.4 mph 48 % 0.0 in
11:27 9.5 °F -1.0 °F 1015.8 in WSW 11.1 mph 11.1 mph 48 % 0.0 in
11:28 9.5 °F -1.0 °F 1015.8 in West 9.3 mph 9.3 mph 48 % 0.0 in
11:30 9.4 °F -1.1 °F 1015.8 in WSW 9.3 mph 9.3 mph 48 % 0.0 in
11:32 9.4 °F -1.1 °F 1015.8 in SW 13.0 mph 13.0 mph 48 % 0.0 in
11:34 9.3 °F -1.2 °F 1015.8 in WSW 13.0 mph 13.0 mph 48 % 0.0 in
11:35 9.3 °F -1.2 °F 1015.8 in WSW 9.3 mph 9.3 mph 48 % 0.0 in
11:36 9.3 °F -1.2 °F 1015.8 in WNW 10.3 mph 10.3 mph 48 % 0.0 in
11:37 9.3 °F -1.2 °F 1015.8 in West 13.0 mph 13.0 mph 48 % 0.0 in
11:39 9.2 °F -1.3 °F 1015.8 in WNW 9.3 mph 9.3 mph 48 % 0.0 in
11:42 9.2 °F -1.3 °F 1015.8 in WSW 9.3 mph 9.3 mph 48 % 0.0 in
11:43 9.1 °F -1.3 °F 1015.8 in West 7.4 mph 7.4 mph 48 % 0.0 in
11:46 9.1 °F -1.3 °F 1015.8 in West 6.1 mph 6.1 mph 48 % 0.0 in
11:47 9.1 °F -1.3 °F 1015.8 in WSW 6.1 mph 6.1 mph 48 % 0.0 in
11:49 9.0 °F -1.4 °F 1015.8 in WSW 7.4 mph 7.4 mph 48 % 0.0 in
11:51 9.0 °F -1.4 °F 1015.8 in West 7.6 mph 7.6 mph 48 % 0.0 in
11:52 9.0 °F -1.4 °F 1015.8 in West 9.3 mph 9.3 mph 48 % 0.0 in
11:53 9.0 °F -1.4 °F 1015.8 in SW 9.3 mph 9.3 mph 48 % 0.0 in
11:54 8.9 °F -1.6 °F 1015.8 in WNW 7.4 mph 7.4 mph 48 % 0.0 in
11:55 8.9 °F -1.5 °F 1015.8 in West 4.8 mph 9.7 mph 48 % 0.0 in
11:56 8.9 °F -1.6 °F 1015.8 in WSW 9.3 mph 9.3 mph 48 % 0.0 in
11:58 8.9 °F -1.6 °F 1015.8 in West 8.7 mph 8.7 mph 48 % 0.0 in
11:59 8.9 °F -1.6 °F 1015.8 in WSW 9.3 mph 9.3 mph 48 % 0.0 in
12:00 8.9 °F -1.6 °F 1015.8 in WSW 4.8 mph 9.7 mph 48 % 0.0 in
12:05 8.7 °F -1.7 °F 1014.8 in West 5.8 mph 5.8 mph 48 % 0.0 in
12:06 8.7 °F -1.7 °F 1014.8 in West 11.1 mph 11.1 mph 48 % 0.0 in
12:07 8.7 °F -1.7 °F 1014.8 in West 11.1 mph 11.1 mph 48 % 0.0 in
12:08 8.7 °F -1.7 °F 1014.8 in WSW 13.0 mph 13.0 mph 48 % 0.0 in
12:09 8.7 °F -1.7 °F 1014.8 in West 13.0 mph 13.0 mph 48 % 0.0 in
12:10 8.7 °F -1.7 °F 1014.8 in West 13.0 mph 13.0 mph 48 % 0.0 in
12:11 8.7 °F -1.4 °F 1014.8 in WSW 5.6 mph 6.4 mph 49 % 0.0 in
12:12 8.7 °F -1.4 °F 1014.8 in WSW 10.0 mph 10.0 mph 49 % 0.0 in
12:14 8.6 °F -1.8 °F 1014.8 in SSW 9.3 mph 9.3 mph 48 % 0.0 in
12:15 8.6 °F -1.5 °F 1014.8 in WSW 9.3 mph 9.3 mph 49 % 0.0 in
12:16 8.6 °F -1.5 °F 1014.8 in WSW 9.3 mph 9.3 mph 49 % 0.0 in
12:20 8.6 °F -1.5 °F 1015.8 in WSW 9.3 mph 9.3 mph 49 % 0.0 in
12:22 8.6 °F -1.5 °F 1015.8 in WSW 9.3 mph 9.3 mph 49 % 0.0 in
12:27 8.6 °F -1.5 °F 1015.8 in WSW 11.1 mph 11.1 mph 49 % 0.0 in
12:49 8.5 °F -1.6 °F 1014.8 in WSW 3.9 mph 3.9 mph 49 % 0.0 in
12:50 8.5 °F -1.6 °F 1014.8 in WSW 3.2 mph 9.7 mph 49 % 0.0 in
12:52 8.4 °F -1.7 °F 1015.8 in SSW 16.7 mph 16.7 mph 49 % 0.0 in
12:53 8.4 °F -1.7 °F 1015.8 in WSW 5.6 mph 5.6 mph 49 % 0.0 in
12:54 8.4 °F -1.7 °F 1015.8 in WSW 3.7 mph 3.7 mph 49 % 0.0 in
12:59 8.3 °F -1.8 °F 1015.8 in WSW 5.6 mph 5.6 mph 49 % 0.0 in
13:07 8.0 °F -1.8 °F 1014.8 in WSW 3.9 mph 3.9 mph 50 % 0.0 in
13:09 8.0 °F -1.8 °F 1014.8 in SW 5.6 mph 5.6 mph 50 % 0.0 in
13:13 8.0 °F -1.8 °F 1014.8 in WSW 3.9 mph 3.9 mph 50 % 0.0 in
13:19 7.9 °F -1.9 °F 1014.8 in WSW 3.7 mph 3.7 mph 50 % 0.0 in
13:24 7.8 °F -2.0 °F 1015.8 in WSW 5.6 mph 5.6 mph 50 % 0.0 in
13:25 7.8 °F -2.0 °F 1015.8 in West 5.6 mph 5.6 mph 50 % 0.0 in
13:28 7.8 °F -2.0 °F 1015.8 in West 5.6 mph 5.6 mph 50 % 0.0 in
13:32 7.8 °F -2.0 °F 1015.8 in West 4.7 mph 4.7 mph 50 % 0.0 in
13:34 7.8 °F -2.0 °F 1015.8 in West 5.6 mph 5.6 mph 50 % 0.0 in
13:35 7.7 °F -2.1 °F 1015.8 in West 4.7 mph 4.7 mph 50 % 0.0 in
13:36 7.7 °F -2.1 °F 1015.8 in WSW 5.6 mph 5.6 mph 50 % 0.0 in
13:37 7.7 °F -2.1 °F 1015.8 in WSW 5.6 mph 5.6 mph 50 % 0.0 in
18:25 4.8 °F -2.8 °F 1013.8 in NNW 1.6 mph 3.2 mph 58 % 0.0 in
Meteo Sesrovires
Elogis d' Weather Underground - 4.5 mb

Guio original per  Jim McMurry - jmcmurry@mwt.net Adaptat per a la plantilla per  Wim van der Kuil - Leuven-Template.eu

Trobareu la nostra informacio del temps tambe a:

Weather Underground

AWEKAS